createdAt,value
2023-05-19T00:04:48.318Z,20.57
2023-05-19T00:14:54.918Z,20.62
2023-05-19T00:24:58.074Z,20.59
2023-05-19T00:35:02.192Z,20.56
2023-05-19T00:45:07.909Z,20.59
2023-05-19T00:55:11.080Z,20.64
2023-05-19T01:05:15.164Z,20.59
2023-05-19T01:15:17.609Z,20.62
2023-05-19T01:25:19.188Z,20.54
2023-05-19T01:35:20.623Z,20.60
2023-05-19T01:45:24.848Z,20.61
2023-05-19T01:55:28.705Z,20.60
2023-05-19T02:05:32.350Z,20.56
2023-05-19T02:15:33.778Z,20.59
2023-05-19T02:25:39.253Z,20.59
2023-05-19T02:35:41.682Z,20.57
2023-05-19T02:45:51.201Z,20.56
2023-05-19T02:55:52.554Z,20.52
2023-05-19T03:05:56.366Z,20.52
2023-05-19T03:15:58.108Z,20.54
2023-05-19T03:26:01.708Z,20.52
2023-05-19T03:36:04.929Z,20.53
2023-05-19T03:46:07.063Z,20.52
2023-05-19T03:56:10.799Z,20.51
2023-05-19T04:06:13.522Z,20.47
2023-05-19T04:16:15.900Z,20.51
2023-05-19T04:26:39.561Z,20.47
2023-05-19T04:36:53.194Z,20.50
2023-05-19T04:46:55.004Z,20.52
2023-05-19T04:56:56.400Z,20.59
2023-05-19T05:06:59.633Z,20.67
2023-05-19T05:17:01.037Z,20.81
2023-05-19T05:27:06.389Z,20.86
2023-05-19T05:37:07.834Z,21.04
2023-05-19T05:47:09.155Z,21.03
2023-05-19T05:57:12.358Z,21.05
2023-05-19T06:07:13.690Z,21.12
2023-05-19T06:17:15.044Z,21.10
2023-05-19T06:27:16.585Z,21.13
2023-05-19T06:37:19.920Z,21.12
2023-05-19T06:47:21.353Z,21.17
2023-05-19T06:57:28.940Z,21.25
2023-05-19T07:07:33.197Z,21.26
2023-05-19T07:17:34.669Z,21.32
2023-05-19T07:27:36.105Z,21.38
2023-05-19T07:37:38.075Z,21.36
2023-05-19T07:47:39.545Z,21.29
2023-05-19T07:57:43.639Z,21.29
2023-05-19T08:07:45.036Z,21.25
2023-05-19T08:17:46.464Z,21.27
2023-05-19T08:27:47.884Z,21.23
2023-05-19T08:37:50.219Z,21.23
2023-05-19T08:47:51.635Z,21.24
2023-05-19T08:57:56.048Z,21.22
2023-05-19T09:07:57.472Z,21.26
2023-05-19T09:18:03.024Z,21.26
2023-05-19T09:28:04.477Z,21.22
2023-05-19T09:38:06.927Z,21.18
2023-05-19T09:48:08.281Z,21.20
2023-05-19T09:58:12.118Z,21.14
2023-05-19T10:08:15.383Z,21.17
2023-05-19T10:18:22.967Z,21.16
2023-05-19T10:28:33.378Z,21.16
2023-05-19T10:38:38.118Z,21.18
2023-05-19T10:58:56.708Z,21.18
2023-05-19T11:09:05.621Z,21.16
2023-05-19T11:19:14.421Z,21.19
2023-05-19T11:29:41.958Z,21.19
2023-05-19T11:39:49.101Z,21.16
2023-05-19T11:49:53.765Z,21.19
2023-05-19T11:59:57.137Z,21.20
2023-05-19T12:10:10.920Z,21.18
2023-05-19T12:20:14.647Z,21.17
2023-05-19T12:30:20.223Z,21.19
2023-05-19T12:40:28.164Z,21.17
2023-05-19T12:50:32.849Z,21.20
2023-05-19T13:00:36.169Z,21.18
2023-05-19T13:10:41.238Z,21.18
2023-05-19T13:20:49.338Z,21.18
2023-05-19T13:30:58.574Z,21.20
2023-05-19T13:41:06.019Z,21.19
2023-05-19T13:51:20.335Z,21.19
2023-05-19T14:01:22.698Z,21.21
2023-05-19T14:11:31.334Z,21.19
2023-05-19T14:33:00.318Z,21.27
2023-05-19T14:42:25.934Z,21.33
2023-05-19T14:52:34.291Z,21.27
2023-05-19T15:03:06.403Z,21.28
2023-05-19T15:13:07.306Z,21.36
2023-05-19T15:44:02.677Z,21.33
2023-05-19T18:19:49.610Z,21.23
2023-05-19T18:32:38.834Z,21.28
2023-05-19T19:53:40.482Z,21.04
2023-05-19T20:03:46.230Z,21.01
2023-05-19T20:14:12.921Z,21.11
2023-05-19T20:24:19.380Z,21.08
2023-05-19T20:44:43.444Z,21.03
2023-05-19T20:54:45.514Z,21.09
2023-05-19T21:04:49.240Z,21.06
2023-05-19T21:14:53.339Z,21.08
2023-05-19T21:24:59.012Z,21.08
2023-05-19T21:35:07.787Z,21.04
2023-05-19T21:45:17.062Z,20.97
2023-05-19T21:55:18.788Z,21.04
2023-05-19T22:05:25.886Z,20.96
2023-05-19T22:25:42.623Z,20.99
2023-05-19T22:35:52.281Z,20.99
2023-05-19T22:45:55.351Z,20.96
2023-05-19T22:55:56.903Z,20.96
2023-05-19T23:05:58.369Z,20.94
2023-05-19T23:16:01.669Z,20.94
2023-05-19T23:26:04.708Z,20.89
2023-05-19T23:36:07.354Z,20.91
2023-05-19T23:46:08.938Z,20.90
2023-05-19T23:56:12.845Z,20.91
